Latest Weather Observations for Delamere

IDD60801

Issued at 5:31 pm CST Sunday 15 September 2019 (issued every 10 minutes, with the page automatically refreshed every 10 minutes)

About weather observations | Map of weather stations | Latest weather observations for NT | Other Formats
Station Details ID: 014949 Name: DELAMERE WEAPONS RANGE Lat: -15.74 Lon: 131.92 Height: 221.0 m
Data from the previous 72 hours. | See also: Recent months at Delamere
Date/Time
CST
Temp
°C
App
Temp
°C
Dew
Point
°C
Rel
Hum
%
Delta-T
°C
Wind Press
QNH
hPa
Press
MSL
hPa
Rain since
9am
mm
Dir  Spd
km/h
Gust
km/h
Spd
kts
Gust
kts
15/05:30pm 33.5 27.4 -3.7 9 17.3 E 19 24 10 13 1013.1 1011.7 0.0
15/05:00pm 33.6 28.3 -3.6 9 17.3 ENE 15 26 8 14 1013.0 1011.6 0.0
15/04:30pm 33.6 27.1 -2.2 10 17.1 E 22 35 12 19 1012.9 1011.5 0.0
15/04:00pm 33.8 28.3 -2.0 10 17.1 E 17 28 9 15 1013.0 1011.6 0.0
15/03:30pm 33.9 27.3 -3.4 9 17.5 E 22 35 12 19 1013.1 1011.7 0.0
15/03:00pm 33.4 26.4 -3.7 9 17.2 E 24 37 13 20 1013.5 1012.1 0.0
15/02:30pm 33.5 26.1 -3.7 9 17.3 ENE 26 39 14 21 1013.6 1012.2 0.0
15/02:00pm 33.2 27.1 -2.5 10 16.9 ENE 20 30 11 16 1014.2 1012.7 0.0
15/01:30pm 32.3 25.9 -1.9 11 16.2 ENE 22 37 12 20 1014.8 1013.3 0.0
15/01:00pm 32.0 25.5 -2.1 11 16.1 ESE 22 37 12 20 1015.5 1014.1 0.0
15/12:42pm 32.3 25.1 -1.9 11 16.2 ESE 26 46 14 25 1015.7 1014.3 0.0
15/12:30pm 32.1 24.4 -3.3 10 16.4 E 28 39 15 21 1016.0 1014.6 0.0
15/12:00pm 31.7 24.2 -1.2 12 15.7 E 28 41 15 22 1016.7 1015.3 0.0
15/11:33am 31.1 23.7 -0.5 13 15.2 ENE 28 46 15 25 1017.2 1015.8 0.0
15/11:30am 31.1 24.3 0.5 14 15.0 E 26 46 14 25 1017.2 1015.8 0.0
15/11:00am 30.1 24.1 3.2 18 13.7 E 24 35 13 19 1017.8 1016.4 0.0
15/10:30am 28.9 23.0 3.7 20 12.8 ENE 24 32 13 17 1018.2 1016.8 0.0
15/10:00am 27.7 22.8 5.3 24 11.7 NE 20 28 11 15 1018.6 1017.2 0.0
15/09:30am 26.6 22.2 5.0 25 11.1 NE 17 24 9 13 1018.9 1017.4 0.0
15/09:00am 25.3 20.0 5.0 27 10.3 NE 22 30 12 16 1019.0 1017.5 0.0
15/08:30am 24.0 20.2 3.9 27 10.0 NE 13 17 7 9 1018.7 1017.3 0.0
15/08:00am 21.2 18.2 3.9 32 8.4 NE 9 13 5 7 1018.5 1017.1 0.0
15/07:30am 19.4 16.8 3.2 34 7.7 NE 6 7 3 4 1018.3 1016.9 0.0
15/07:00am 17.4 14.6 2.2 36 7.0 ENE 6 9 3 5 1017.9 1016.5 0.0
15/06:30am 17.9 14.6 2.6 36 7.1 ENE 9 13 5 7 1017.7 1016.3 0.0
15/06:00am 18.2 14.8 2.1 34 7.4 ENE 9 13 5 7 1017.3 1015.9 0.0
15/05:30am 18.4 14.5 1.4 32 7.7 ENE 11 13 6 7 1017.1 1015.7 0.0
15/05:00am 18.5 14.9 0.6 30 8.0 ENE 9 11 5 6 1017.0 1015.6 0.0
15/04:30am 19.5 15.6 1.0 29 8.4 ENE 11 13 6 7 1016.7 1015.3 0.0
15/04:00am 20.1 16.2 1.0 28 8.7 E 11 13 6 7 1016.3 1014.9 0.0
15/03:30am 20.7 16.8 1.1 27 9.0 ENE 11 13 6 7 1016.2 1014.8 0.0
15/03:00am 20.8 17.3 1.1 27 9.0 ENE 9 13 5 7 1016.2 1014.8 0.0
15/02:30am 21.1 17.2 1.4 27 9.1 NE 11 13 6 7 1016.3 1014.9 0.0
15/02:00am 22.2 17.9 1.3 25 9.8 NE 13 17 7 9 1016.3 1014.9 0.0
15/01:30am 22.9 18.4 1.9 25 10.0 NE 15 19 8 10 1016.5 1015.1 0.0
15/01:00am 23.3 18.8 2.2 25 10.1 NE 15 22 8 12 1016.6 1015.2 0.0
15/12:30am 23.8 19.9 3.2 26 10.1 NNE 13 19 7 10 1016.7 1015.3 0.0
15/12:00am 24.5 20.2 3.2 25 10.5 NE 15 20 8 11 1016.6 1015.2 0.0
 
Date/Time
CST
Temp
°C
App
Temp
°C
Dew
Point
°C
Rel
Hum
%
Delta-T
°C
Wind Press
QNH
hPa
Press
MSL
hPa
Rain since
9am
mm
Dir  Spd
km/h
Gust
km/h
Spd
kts
Gust
kts
14/11:30pm 25.3 20.5 2.7 23 11.1 NE 17 22 9 12 1016.6 1015.2 0.0
14/11:00pm 25.8 20.9 1.8 21 11.6 NE 17 26 9 14 1016.6 1015.2 0.0
14/10:30pm 25.7 22.1 0.4 19 11.9 ENE 9 11 5 6 1016.2 1014.8 0.0
14/10:00pm 25.4 21.6 -0.6 18 12.0 ENE 9 11 5 6 1016.1 1014.7 0.0
14/09:30pm 26.1 22.0 0.0 18 12.2 NE 11 15 6 8 1016.1 1014.7 0.0
14/09:00pm 26.7 23.0 -0.3 17 12.6 E 9 11 5 6 1016.0 1014.6 0.0
14/08:30pm 26.2 23.0 -0.8 17 12.5 E 6 9 3 5 1015.9 1014.5 0.0
14/08:00pm 27.7 24.4 -1.3 15 13.4 ENE 6 7 3 4 1015.5 1014.1 0.0
14/07:30pm 29.5 26.1 -0.8 14 14.4 E 7 11 4 6 1015.2 1013.7 0.0
14/07:00pm 30.6 26.3 -2.0 12 15.3 ENE 11 17 6 9 1014.9 1013.4 0.0
14/06:30pm 31.5 26.3 -2.5 11 15.9 ESE 15 20 8 11 1014.5 1013.0 0.0
14/06:00pm 32.3 26.3 -3.2 10 16.5 E 19 28 10 15 1014.2 1012.7 0.0
14/05:30pm 32.8 26.6 -2.8 10 16.7 E 20 32 11 17 1014.0 1012.6 0.0
14/05:00pm 33.2 27.1 -2.5 10 16.9 ESE 20 33 11 18 1013.8 1012.4 0.0
14/04:30pm 33.3 26.8 -2.4 10 16.9 E 22 35 12 19 1013.9 1012.5 0.0
14/04:00pm 33.9 27.5 -2.0 10 17.2 ESE 22 35 12 19 1013.8 1012.4 0.0
14/03:30pm 33.6 27.5 -2.2 10 17.1 E 20 32 11 17 1014.0 1012.6 0.0
14/03:00pm 33.0 26.9 -2.6 10 16.8 ESE 20 32 11 17 1014.3 1012.8 0.0
14/02:46pm 33.4 27.3 -2.3 10 17.0 E 20 44 11 24 1014.6 1013.1 0.0
14/02:30pm 32.8 26.8 -1.5 11 16.4 ESE 20 35 11 19 1014.8 1013.3 0.0
14/02:00pm 32.4 26.0 -1.8 11 16.3 E 22 43 12 23 1015.3 1013.9 0.0
14/01:30pm 31.9 25.1 -2.2 11 16.0 E 24 43 13 23 1016.1 1014.7 0.0
14/01:00pm 31.2 24.6 -0.5 13 15.3 ESE 24 39 13 21 1016.8 1015.4 0.0
14/12:30pm 30.7 23.8 0.2 14 14.8 ESE 26 35 14 19 1017.4 1016.0 0.0
14/12:00pm 30.6 23.8 1.0 15 14.6 E 26 44 14 24 1018.0 1016.6 0.0
14/11:30am 30.0 23.7 1.5 16 14.1 E 24 35 13 19 1018.4 1017.0 0.0
14/11:05am 29.9 22.9 2.2 17 13.9 E 28 46 15 25 1019.2 1017.7 0.0
14/11:00am 29.2 21.3 0.8 16 13.8 E 32 46 17 25 1019.3 1017.8 0.0
14/10:30am 28.4 22.9 5.9 24 11.9 ENE 24 44 13 24 1019.8 1018.4 0.0
14/10:00am 27.5 23.0 8.4 30 10.5 E 22 32 12 17 1020.3 1018.9 0.0
14/09:30am 25.4 22.8 10.8 40 8.2 NE 15 24 8 13 1020.4 1019.0 0.0
14/09:00am 22.6 20.5 12.3 52 5.9 ENE 15 20 8 11 1020.5 1019.1 0.0
14/08:30am 21.6 19.8 12.2 55 5.3 ESE 13 20 7 11 1020.5 1019.1 0.0
14/08:00am 20.1 17.9 9.4 50 5.7 ESE 11 13 6 7 1020.3 1018.9 0.0
14/07:30am 18.5 16.5 7.0 47 5.8 ESE 7 11 4 6 1019.9 1018.5 0.0
14/07:00am 17.3 15.0 5.6 46 5.7 ESE 7 11 4 6 1019.5 1018.1 0.0
14/06:30am 16.9 14.1 2.9 39 6.5 ESE 7 9 4 5 1019.1 1017.6 0.0
14/06:00am 17.1 14.1 2.3 37 6.7 ESE 7 9 4 5 1018.6 1017.2 0.0
14/05:30am 17.5 14.5 1.9 35 7.1 E 7 11 4 6 1018.4 1017.0 0.0
14/05:00am 17.9 14.4 1.0 32 7.6 E 9 11 5 6 1018.1 1016.7 0.0
14/04:30am 18.0 14.3 0.2 30 7.8 E 9 11 5 6 1018.0 1016.6 0.0
14/04:00am 18.1 14.8 0.3 30 7.9 E 7 11 4 6 1017.8 1016.4 0.0
14/03:30am 18.3 14.9 -0.5 28 8.2 ESE 7 9 4 5 1017.6 1016.2 0.0
14/03:00am 18.3 14.8 -1.5 26 8.4 E 7 9 4 5 1017.4 1016.0 0.0
14/02:30am 19.0 15.5 -1.4 25 8.8 E 7 11 4 6 1017.5 1016.1 0.0
14/02:00am 19.6 15.6 -2.1 23 9.3 E 9 11 5 6 1017.7 1016.3 0.0
14/01:30am 20.2 16.5 -2.8 21 9.7 E 7 9 4 5 1017.7 1016.3 0.0
14/01:00am 21.8 16.6 -2.8 19 10.6 ENE 15 20 8 11 1017.9 1016.5 0.0
14/12:30am 22.3 17.9 -2.4 19 10.7 SE 11 15 6 8 1017.4 1016.0 0.0
14/12:00am 21.9 18.2 -2.7 19 10.6 ESE 7 9 4 5 1017.5 1016.1 0.0
 
Date/Time
CST
Temp
°C
App
Temp
°C
Dew
Point
°C
Rel
Hum
%
Delta-T
°C
Wind Press
QNH
hPa
Press
MSL
hPa
Rain since
9am
mm
Dir  Spd
km/h
Gust
km/h
Spd
kts
Gust
kts
13/11:30pm 23.2 19.5 -3.2 17 11.4 ESE 7 9 4 5 1017.5 1016.1 0.0
13/11:00pm 24.9 20.0 -3.5 15 12.4 SE 13 19 7 10 1017.4 1016.0 0.0
13/10:30pm 25.0 20.2 -2.5 16 12.2 SSE 13 19 7 10 1017.3 1015.9 0.0
13/10:00pm 25.8 21.0 -2.8 15 12.7 SE 13 15 7 8 1017.2 1015.8 0.0
13/09:30pm 26.4 22.0 -2.3 15 12.9 SE 11 17 6 9 1017.2 1015.8 0.0
13/09:00pm 26.2 22.3 -1.6 16 12.7 SE 9 11 5 6 1017.1 1015.7 0.0
13/08:30pm 27.1 23.2 -1.7 15 13.2 SE 9 13 5 7 1017.0 1015.6 0.0
13/08:00pm 27.3 23.8 -1.6 15 13.3 SE 7 9 4 5 1016.6 1015.2 0.0
13/07:30pm 28.2 24.6 -1.8 14 13.8 SE 7 11 4 6 1016.3 1014.9 0.0
13/07:00pm 29.5 25.6 -1.8 13 14.6 SE 9 13 5 7 1015.9 1014.5 0.0
13/06:30pm 30.6 25.9 -2.0 12 15.2 ESE 13 20 7 11 1015.5 1014.1 0.0
13/06:00pm 31.5 25.9 -2.5 11 15.9 ESE 17 26 9 14 1015.3 1013.9 0.0
13/05:30pm 31.9 26.4 -2.2 11 16.0 ESE 17 28 9 15 1015.1 1013.6 0.0
13/05:00pm 32.3 26.4 -1.9 11 16.2 SE 19 28 10 15 1015.1 1013.6 0.0
13/04:30pm 32.4 26.2 -3.1 10 16.5 ESE 20 30 11 16 1015.0 1013.5 0.0
13/04:00pm 32.2 26.6 -3.2 10 16.4 ESE 17 28 9 15 1015.1 1013.6 0.0
13/03:30pm 32.6 27.0 -2.9 10 16.6 E 17 32 9 17 1015.3 1013.9 0.0
13/03:00pm 32.7 27.1 -2.9 10 16.7 SE 17 32 9 17 1015.5 1014.1 0.0
13/02:30pm 32.0 25.7 -0.9 12 15.8 ESE 22 33 12 18 1016.2 1014.8 0.0
13/02:00pm 31.7 25.0 -1.2 12 15.7 E 24 37 13 20 1016.6 1015.2 0.0
13/01:30pm 31.5 24.5 -0.2 13 15.4 ENE 26 39 14 21 1017.4 1016.0 0.0
13/01:00pm 30.8 24.3 0.2 14 14.9 E 24 41 13 22 1018.0 1016.6 0.0
13/12:48pm 30.2 23.0 0.7 15 14.4 ESE 28 46 15 25 1018.2 1016.8 0.0
13/12:30pm 30.4 24.0 0.9 15 14.5 E 24 35 13 19 1018.5 1017.1 0.0
13/12:00pm 29.5 23.0 2.7 18 13.5 ESE 26 41 14 22 1019.1 1017.6 0.0
13/11:30am 29.1 22.3 3.1 19 13.1 E 28 43 15 23 1019.6 1018.2 0.0
13/11:00am 28.6 23.3 4.8 22 12.4 ENE 22 35 12 19 1020.0 1018.6 0.0
13/10:30am 27.3 22.7 6.7 27 10.9 ENE 20 30 11 16 1020.5 1019.1 0.0
13/10:00am 26.4 21.4 6.4 28 10.5 ENE 22 33 12 18 1020.9 1019.5 0.0
13/09:30am 24.9 22.4 8.0 34 9.1 ENE 11 15 6 8 1021.0 1019.6 0.0
13/09:00am 22.5 20.2 10.3 46 6.7 E 13 15 7 8 1020.9 1019.5 0.0
13/08:30am 21.0 18.8 9.3 47 6.3 E 11 13 6 7 1020.8 1019.4 0.0
13/08:00am 19.6 16.7 6.4 42 6.7 ESE 11 15 6 8 1020.5 1019.1 0.0
13/07:30am 17.8 14.6 3.3 38 6.8 ESE 9 11 5 6 1020.2 1018.8 0.0
13/07:00am 15.6 12.6 1.7 39 6.2 ESE 7 9 4 5 1020.0 1018.6 0.0
13/06:30am 15.3 12.0 -0.1 35 6.6 E 7 9 4 5 1019.5 1018.1 0.0
13/06:00am 15.7 11.9 -0.9 32 7.0 E 9 11 5 6 1019.2 1017.7 0.0
13/05:30am 16.5 12.6 -1.6 29 7.6 E 9 11 5 6 1018.9 1017.4 0.0
13/05:00am 16.7 12.2 -2.9 26 8.0 E 11 15 6 8 1018.5 1017.1 0.0
13/04:30am 16.1 11.9 -3.9 25 7.9 E 9 11 5 6 1018.1 1016.7 0.0
13/04:00am 15.7 11.9 -5.9 22 8.2 ESE 6 7 3 4 1017.7 1016.3 0.0
13/03:30am 15.7 11.9 -5.9 22 8.2 E 6 7 3 4 1017.9 1016.5 0.0
13/03:00am 16.9 12.9 -5.5 21 8.7 E 7 9 4 5 1017.9 1016.5 0.0
13/02:30am 18.6 14.6 -5.4 19 9.5 ENE 7 9 4 5 1018.0 1016.6 0.0
13/02:00am 20.2 15.5 -4.8 18 10.2 E 11 13 6 7 1018.2 1016.8 0.0
13/01:30am 20.2 15.0 -6.4 16 10.4 ESE 13 17 7 9 1018.2 1016.8 0.0
13/01:00am 19.6 14.1 -9.5 13 10.7 ESE 13 19 7 10 1018.4 1017.0 0.0
13/12:30am 21.0 16.2 -10.5 11 11.5 SE 9 15 5 8 1017.8 1016.4 0.0
13/12:00am 19.9 15.3 -8.4 14 10.6 SE 9 13 5 7 1017.8 1016.4 0.0
 
Date/Time
CST
Temp
°C
App
Temp
°C
Dew
Point
°C
Rel
Hum
%
Delta-T
°C
Wind Press
QNH
hPa
Press
MSL
hPa
Rain since
9am
mm
Dir  Spd
km/h
Gust
km/h
Spd
kts
Gust
kts
12/11:30pm 19.8 15.6 -7.5 15 10.4 E 7 9 4 5 1018.1 1016.7 0.0
12/11:00pm 21.8 17.0 -9.9 11 11.8 ENE 9 13 5 7 1017.9 1016.5 0.0
12/10:30pm 24.2 18.7 -9.3 10 13.0 SSE 13 15 7 8 1017.8 1016.4 0.0
12/10:00pm 24.4 18.9 -9.1 10 13.1 SSE 13 17 7 9 1017.8 1016.4 0.0
12/09:30pm 24.2 19.2 -8.1 11 12.8 SSE 11 13 6 7 1017.7 1016.3 0.0
12/09:00pm 25.2 20.3 -7.3 11 13.2 SSE 11 15 6 8 1017.8 1016.4 0.0
12/08:30pm 25.5 21.0 -7.1 11 13.3 SE 9 13 5 7 1017.5 1016.1 0.0
12/08:00pm 26.1 22.0 -6.6 11 13.6 SE 7 11 4 6 1017.1 1015.7 0.0
12/07:30pm 27.1 23.0 -7.1 10 14.2 SE 7 11 4 6 1016.8 1015.4 0.0
12/07:00pm 28.4 24.0 -6.1 10 14.8 SE 9 13 5 7 1016.3 1014.9 0.0
12/06:30pm 29.8 24.6 -6.4 9 15.6 ESE 13 22 7 12 1016.0 1014.6 0.0
12/06:00pm 30.7 25.5 -5.8 9 16.0 SE 13 20 7 11 1015.8 1014.4 0.0

Other formats

Comma delimited format used in spreadsheet applications
http://www.bom.gov.au/fwo/IDD60801/IDD60801.94225.axf

JavaScript Object Notation format (JSON) in row-major order
http://www.bom.gov.au/fwo/IDD60801/IDD60801.94225.json

Data quality

Most of these data are generated automatically and are frequently updated. Quality checks on data are not normally performed. It is possible for incorrect values to appear. Refer to information at About Latest Weather Observations and please check the disclaimer before using these data.